Daytona Beach, Florida
Current Conditions -  °F | °C
As of 12:53 PM on Friday 24 Oct 2014 (Local Time) from KDAB Reporting Station
Scattered Clouds Scattered Clouds  
Wind Chill: 25°   Ceiling: Unl
Heat Index: 26°   Visibility: 10mi
Dew Point: 14°   Wind: 15mph
Humidity: 50%   Direction: 10°N
Pressure: 30.01"   Gusts: NA
Location:  29.2°N, 81.04°W
Report Text: KDAB 241653Z 01013KT 10SM SCT043 SCT140 25/14 A3001 RMK AO2 SLP160 T02500139
Loading
Personal Weather Stations






























Interactive Weather Map New forecast layout! Learn more

10-Day Weather Forecast

Advertisements
Track Severe Weather on mobile